sensor_id;sensor_type;location;lat;lon;timestamp;P1;durP1;ratioP1;P2;durP2;ratioP2
21337;SDS011;72379;50.880;4.350;2023-10-13T00:01:23;33.60;;;18.98;;
21337;SDS011;72379;50.880;4.350;2023-10-13T00:03:50;34.97;;;18.27;;
21337;SDS011;72379;50.880;4.350;2023-10-13T00:06:19;36.90;;;19.42;;
21337;SDS011;72379;50.880;4.350;2023-10-13T00:08:45;30.42;;;18.67;;
21337;SDS011;72379;50.880;4.350;2023-10-13T00:11:14;36.40;;;19.23;;
21337;SDS011;72379;50.880;4.350;2023-10-13T00:13:40;33.63;;;18.65;;
21337;SDS011;72379;50.880;4.350;2023-10-13T00:16:16;37.20;;;20.25;;
21337;SDS011;72379;50.880;4.350;2023-10-13T00:18:46;41.42;;;20.42;;
21337;SDS011;72379;50.880;4.350;2023-10-13T00:21:14;36.83;;;20.48;;
21337;SDS011;72379;50.880;4.350;2023-10-13T00:23:45;39.17;;;21.27;;
21337;SDS011;72379;50.880;4.350;2023-10-13T00:26:24;39.28;;;21.08;;
21337;SDS011;72379;50.880;4.350;2023-10-13T00:28:55;40.80;;;21.10;;
21337;SDS011;72379;50.880;4.350;2023-10-13T00:31:41;37.67;;;21.25;;
21337;SDS011;72379;50.880;4.350;2023-10-13T00:34:11;44.72;;;22.75;;
21337;SDS011;72379;50.880;4.350;2023-10-13T00:36:37;40.72;;;21.83;;
21337;SDS011;72379;50.880;4.350;2023-10-13T00:39:22;41.90;;;22.40;;
21337;SDS011;72379;50.880;4.350;2023-10-13T00:41:48;44.10;;;23.52;;
21337;SDS011;72379;50.880;4.350;2023-10-13T00:44:17;47.47;;;24.52;;
21337;SDS011;72379;50.880;4.350;2023-10-13T00:46:53;43.47;;;22.40;;
21337;SDS011;72379;50.880;4.350;2023-10-13T00:49:21;51.58;;;23.63;;
21337;SDS011;72379;50.880;4.350;2023-10-13T00:51:49;43.63;;;22.73;;
21337;SDS011;72379;50.880;4.350;2023-10-13T00:54:16;44.42;;;23.48;;
21337;SDS011;72379;50.880;4.350;2023-10-13T00:56:43;45.47;;;22.52;;
21337;SDS011;72379;50.880;4.350;2023-10-13T00:59:22;44.13;;;23.17;;
21337;SDS011;72379;50.880;4.350;2023-10-13T01:01:50;47.78;;;23.55;;
21337;SDS011;72379;50.880;4.350;2023-10-13T01:04:20;45.95;;;22.73;;
21337;SDS011;72379;50.880;4.350;2023-10-13T01:06:48;44.88;;;22.23;;
21337;SDS011;72379;50.880;4.350;2023-10-13T01:09:14;45.42;;;23.55;;
21337;SDS011;72379;50.880;4.350;2023-10-13T01:11:49;44.30;;;23.52;;
21337;SDS011;72379;50.880;4.350;2023-10-13T01:14:20;43.90;;;23.17;;
21337;SDS011;72379;50.880;4.350;2023-10-13T01:16:49;48.28;;;23.58;;
21337;SDS011;72379;50.880;4.350;2023-10-13T01:19:17;46.60;;;24.63;;
21337;SDS011;72379;50.880;4.350;2023-10-13T01:21:49;50.47;;;24.67;;
21337;SDS011;72379;50.880;4.350;2023-10-13T01:24:19;55.03;;;26.60;;
21337;SDS011;72379;50.880;4.350;2023-10-13T01:26:49;48.72;;;24.75;;
21337;SDS011;72379;50.880;4.350;2023-10-13T01:29:17;50.28;;;24.60;;
21337;SDS011;72379;50.880;4.350;2023-10-13T01:31:44;51.55;;;25.25;;
21337;SDS011;72379;50.880;4.350;2023-10-13T01:34:17;49.33;;;25.08;;
21337;SDS011;72379;50.880;4.350;2023-10-13T01:36:48;50.85;;;24.20;;
21337;SDS011;72379;50.880;4.350;2023-10-13T01:39:21;48.20;;;25.55;;
21337;SDS011;72379;50.880;4.350;2023-10-13T01:41:51;49.45;;;24.20;;
21337;SDS011;72379;50.880;4.350;2023-10-13T01:44:23;50.42;;;24.25;;
21337;SDS011;72379;50.880;4.350;2023-10-13T01:46:57;45.83;;;24.35;;
21337;SDS011;72379;50.880;4.350;2023-10-13T01:49:34;46.38;;;23.73;;
21337;SDS011;72379;50.880;4.350;2023-10-13T01:52:07;43.45;;;21.92;;
21337;SDS011;72379;50.880;4.350;2023-10-13T01:54:37;47.67;;;23.45;;
21337;SDS011;72379;50.880;4.350;2023-10-13T01:57:09;47.47;;;23.38;;
21337;SDS011;72379;50.880;4.350;2023-10-13T01:59:40;47.90;;;23.38;;
21337;SDS011;72379;50.880;4.350;2023-10-13T02:02:09;43.10;;;22.15;;
21337;SDS011;72379;50.880;4.350;2023-10-13T02:04:38;43.10;;;22.08;;
21337;SDS011;72379;50.880;4.350;2023-10-13T02:07:10;46.10;;;22.75;;
21337;SDS011;72379;50.880;4.350;2023-10-13T02:09:39;39.75;;;20.55;;
21337;SDS011;72379;50.880;4.350;2023-10-13T02:12:07;48.60;;;21.85;;
21337;SDS011;72379;50.880;4.350;2023-10-13T02:14:35;36.33;;;19.98;;
21337;SDS011;72379;50.880;4.350;2023-10-13T02:17:03;35.78;;;20.42;;
21337;SDS011;72379;50.880;4.350;2023-10-13T02:19:38;40.20;;;20.00;;
21337;SDS011;72379;50.880;4.350;2023-10-13T02:22:08;38.30;;;20.02;;
21337;SDS011;72379;50.880;4.350;2023-10-13T02:24:35;34.90;;;19.23;;
21337;SDS011;72379;50.880;4.350;2023-10-13T02:27:05;34.05;;;18.38;;
21337;SDS011;72379;50.880;4.350;2023-10-13T02:29:41;36.80;;;19.90;;
21337;SDS011;72379;50.880;4.350;2023-10-13T02:32:10;33.38;;;18.55;;
21337;SDS011;72379;50.880;4.350;2023-10-13T02:34:45;32.92;;;18.02;;
21337;SDS011;72379;50.880;4.350;2023-10-13T02:37:11;34.17;;;17.58;;
21337;SDS011;72379;50.880;4.350;2023-10-13T02:39:43;34.35;;;17.52;;
21337;SDS011;72379;50.880;4.350;2023-10-13T02:42:09;35.40;;;17.45;;
21337;SDS011;72379;50.880;4.350;2023-10-13T02:44:48;36.35;;;16.85;;
21337;SDS011;72379;50.880;4.350;2023-10-13T02:47:14;29.30;;;16.33;;
21337;SDS011;72379;50.880;4.350;2023-10-13T02:49:40;33.78;;;16.13;;
21337;SDS011;72379;50.880;4.350;2023-10-13T02:52:11;30.33;;;15.10;;
21337;SDS011;72379;50.880;4.350;2023-10-13T02:54:37;30.60;;;15.85;;
21337;SDS011;72379;50.880;4.350;2023-10-13T02:57:22;32.22;;;16.38;;
21337;SDS011;72379;50.880;4.350;2023-10-13T02:59:48;33.53;;;15.88;;
21337;SDS011;72379;50.880;4.350;2023-10-13T03:02:36;30.67;;;16.67;;
21337;SDS011;72379;50.880;4.350;2023-10-13T03:05:08;29.70;;;15.18;;
21337;SDS011;72379;50.880;4.350;2023-10-13T03:07:35;30.67;;;15.75;;
21337;SDS011;72379;50.880;4.350;2023-10-13T03:10:02;30.02;;;15.93;;
21337;SDS011;72379;50.880;4.350;2023-10-13T03:12:38;34.63;;;16.05;;
21337;SDS011;72379;50.880;4.350;2023-10-13T03:15:05;30.23;;;15.65;;
21337;SDS011;72379;50.880;4.350;2023-10-13T03:17:39;31.42;;;14.95;;
21337;SDS011;72379;50.880;4.350;2023-10-13T03:20:11;29.90;;;16.08;;
21337;SDS011;72379;50.880;4.350;2023-10-13T03:22:40;29.73;;;15.30;;
21337;SDS011;72379;50.880;4.350;2023-10-13T03:25:06;31.70;;;14.40;;
21337;SDS011;72379;50.880;4.350;2023-10-13T03:27:39;29.13;;;15.45;;
21337;SDS011;72379;50.880;4.350;2023-10-13T03:30:25;28.75;;;15.43;;
21337;SDS011;72379;50.880;4.350;2023-10-13T03:33:01;34.20;;;14.18;;
21337;SDS011;72379;50.880;4.350;2023-10-13T03:35:31;34.55;;;14.05;;
21337;SDS011;72379;50.880;4.350;2023-10-13T03:38:09;29.65;;;14.48;;
21337;SDS011;72379;50.880;4.350;2023-10-13T03:40:45;29.40;;;13.50;;
21337;SDS011;72379;50.880;4.350;2023-10-13T03:43:14;30.77;;;14.40;;
21337;SDS011;72379;50.880;4.350;2023-10-13T03:45:47;30.40;;;15.75;;
21337;SDS011;72379;50.880;4.350;2023-10-13T03:48:19;36.17;;;15.18;;
21337;SDS011;72379;50.880;4.350;2023-10-13T03:51:01;29.38;;;14.20;;
21337;SDS011;72379;50.880;4.350;2023-10-13T03:53:38;32.97;;;15.50;;
21337;SDS011;72379;50.880;4.350;2023-10-13T03:56:18;30.80;;;14.93;;
21337;SDS011;72379;50.880;4.350;2023-10-13T03:59:14;32.90;;;15.35;;
21337;SDS011;72379;50.880;4.350;2023-10-13T04:01:39;33.83;;;16.00;;
21337;SDS011;72379;50.880;4.350;2023-10-13T04:04:08;38.13;;;14.43;;
21337;SDS011;72379;50.880;4.350;2023-10-13T04:06:46;39.17;;;15.35;;
21337;SDS011;72379;50.880;4.350;2023-10-13T04:09:19;36.35;;;14.88;;
21337;SDS011;72379;50.880;4.350;2023-10-13T04:11:55;28.73;;;14.07;;
21337;SDS011;72379;50.880;4.350;2023-10-13T04:14:36;29.40;;;13.20;;
21337;SDS011;72379;50.880;4.350;2023-10-13T04:17:25;31.85;;;14.10;;
21337;SDS011;72379;50.880;4.350;2023-10-13T04:19:54;35.27;;;13.73;;
21337;SDS011;72379;50.880;4.350;2023-10-13T04:25:21;28.63;;;12.80;;
21337;SDS011;72379;50.880;4.350;2023-10-13T04:28:04;30.45;;;13.00;;
21337;SDS011;72379;50.880;4.350;2023-10-13T04:30:50;29.85;;;12.20;;
21337;SDS011;72379;50.880;4.350;2023-10-13T04:33:26;28.25;;;12.73;;
21337;SDS011;72379;50.880;4.350;2023-10-13T04:36:01;30.30;;;14.40;;
21337;SDS011;72379;50.880;4.350;2023-10-13T04:38:48;29.05;;;13.10;;
21337;SDS011;72379;50.880;4.350;2023-10-13T04:41:30;26.70;;;12.30;;
21337;SDS011;72379;50.880;4.350;2023-10-13T04:44:06;33.20;;;12.45;;
21337;SDS011;72379;50.880;4.350;2023-10-13T04:46:53;26.73;;;12.02;;
21337;SDS011;72379;50.880;4.350;2023-10-13T04:49:33;27.70;;;11.57;;
21337;SDS011;72379;50.880;4.350;2023-10-13T04:52:05;26.30;;;11.98;;
21337;SDS011;72379;50.880;4.350;2023-10-13T04:54:34;23.15;;;11.57;;
21337;SDS011;72379;50.880;4.350;2023-10-13T04:57:14;26.10;;;12.20;;
21337;SDS011;72379;50.880;4.350;2023-10-13T05:00:00;29.40;;;12.68;;
21337;SDS011;72379;50.880;4.350;2023-10-13T05:02:43;31.73;;;11.77;;
21337;SDS011;72379;50.880;4.350;2023-10-13T05:05:27;28.42;;;12.63;;
21337;SDS011;72379;50.880;4.350;2023-10-13T05:08:11;28.85;;;11.45;;
21337;SDS011;72379;50.880;4.350;2023-10-13T05:10:56;27.67;;;11.48;;
21337;SDS011;72379;50.880;4.350;2023-10-13T05:14:00;30.75;;;12.43;;
21337;SDS011;72379;50.880;4.350;2023-10-13T05:16:44;26.55;;;12.43;;
21337;SDS011;72379;50.880;4.350;2023-10-13T05:19:29;27.95;;;11.40;;
21337;SDS011;72379;50.880;4.350;2023-10-13T05:22:13;31.10;;;12.45;;
21337;SDS011;72379;50.880;4.350;2023-10-13T05:24:59;27.17;;;11.95;;
21337;SDS011;72379;50.880;4.350;2023-10-13T05:27:43;32.55;;;11.10;;
21337;SDS011;72379;50.880;4.350;2023-10-13T05:30:28;24.17;;;10.77;;
21337;SDS011;72379;50.880;4.350;2023-10-13T05:33:12;22.40;;;10.02;;
21337;SDS011;72379;50.880;4.350;2023-10-13T05:35:56;32.28;;;10.15;;
21337;SDS011;72379;50.880;4.350;2023-10-13T05:38:41;24.65;;;9.57;;
21337;SDS011;72379;50.880;4.350;2023-10-13T05:41:25;24.05;;;9.68;;
21337;SDS011;72379;50.880;4.350;2023-10-13T05:44:09;27.05;;;9.85;;
21337;SDS011;72379;50.880;4.350;2023-10-13T05:46:56;27.25;;;9.95;;
21337;SDS011;72379;50.880;4.350;2023-10-13T05:49:40;26.85;;;9.75;;
21337;SDS011;72379;50.880;4.350;2023-10-13T05:52:15;21.58;;;9.18;;
21337;SDS011;72379;50.880;4.350;2023-10-13T05:54:47;27.17;;;9.43;;
21337;SDS011;72379;50.880;4.350;2023-10-13T05:57:31;30.33;;;9.00;;
21337;SDS011;72379;50.880;4.350;2023-10-13T06:00:15;30.02;;;8.75;;
21337;SDS011;72379;50.880;4.350;2023-10-13T06:03:00;26.83;;;8.43;;
21337;SDS011;72379;50.880;4.350;2023-10-13T06:05:44;22.25;;;9.70;;
21337;SDS011;72379;50.880;4.350;2023-10-13T06:08:33;25.50;;;8.88;;
21337;SDS011;72379;50.880;4.350;2023-10-13T06:11:20;19.77;;;8.55;;
21337;SDS011;72379;50.880;4.350;2023-10-13T06:14:04;26.33;;;8.88;;
21337;SDS011;72379;50.880;4.350;2023-10-13T06:16:48;22.08;;;9.38;;
21337;SDS011;72379;50.880;4.350;2023-10-13T06:19:35;16.98;;;7.68;;
21337;SDS011;72379;50.880;4.350;2023-10-13T06:22:19;21.10;;;9.05;;
21337;SDS011;72379;50.880;4.350;2023-10-13T06:25:03;17.80;;;8.30;;
21337;SDS011;72379;50.880;4.350;2023-10-13T06:27:52;21.33;;;7.75;;
21337;SDS011;72379;50.880;4.350;2023-10-13T06:30:36;23.58;;;8.52;;
21337;SDS011;72379;50.880;4.350;2023-10-13T06:33:03;25.55;;;8.20;;
21337;SDS011;72379;50.880;4.350;2023-10-13T06:35:30;24.48;;;9.18;;
21337;SDS011;72379;50.880;4.350;2023-10-13T06:38:02;23.67;;;8.57;;
21337;SDS011;72379;50.880;4.350;2023-10-13T06:40:28;18.77;;;8.40;;
21337;SDS011;72379;50.880;4.350;2023-10-13T06:42:54;21.77;;;8.02;;
21337;SDS011;72379;50.880;4.350;2023-10-13T06:45:36;27.83;;;8.50;;
21337;SDS011;72379;50.880;4.350;2023-10-13T06:48:02;22.42;;;8.07;;
21337;SDS011;72379;50.880;4.350;2023-10-13T06:50:29;28.67;;;8.63;;
21337;SDS011;72379;50.880;4.350;2023-10-13T06:53:04;17.67;;;7.45;;
21337;SDS011;72379;50.880;4.350;2023-10-13T06:55:30;20.48;;;7.30;;
21337;SDS011;72379;50.880;4.350;2023-10-13T06:58:00;21.98;;;7.50;;
21337;SDS011;72379;50.880;4.350;2023-10-13T07:00:29;19.17;;;8.00;;
21337;SDS011;72379;50.880;4.350;2023-10-13T07:02:57;27.40;;;7.90;;
21337;SDS011;72379;50.880;4.350;2023-10-13T07:05:36;16.33;;;7.57;;
21337;SDS011;72379;50.880;4.350;2023-10-13T07:08:06;20.48;;;7.68;;
21337;SDS011;72379;50.880;4.350;2023-10-13T07:10:33;18.58;;;7.15;;
21337;SDS011;72379;50.880;4.350;2023-10-13T07:13:16;19.08;;;8.43;;
21337;SDS011;72379;50.880;4.350;2023-10-13T07:15:46;23.58;;;7.53;;
21337;SDS011;72379;50.880;4.350;2023-10-13T07:18:13;17.92;;;8.52;;
21337;SDS011;72379;50.880;4.350;2023-10-13T07:20:42;24.40;;;7.00;;
21337;SDS011;72379;50.880;4.350;2023-10-13T07:23:12;14.68;;;7.07;;
21337;SDS011;72379;50.880;4.350;2023-10-13T07:25:53;19.50;;;7.07;;
21337;SDS011;72379;50.880;4.350;2023-10-13T07:28:22;15.25;;;7.28;;
21337;SDS011;72379;50.880;4.350;2023-10-13T07:30:48;22.00;;;8.15;;
21337;SDS011;72379;50.880;4.350;2023-10-13T07:33:15;21.92;;;7.63;;
21337;SDS011;72379;50.880;4.350;2023-10-13T07:35:46;17.55;;;7.38;;
21337;SDS011;72379;50.880;4.350;2023-10-13T07:38:17;22.92;;;8.43;;
21337;SDS011;72379;50.880;4.350;2023-10-13T07:40:46;21.48;;;7.75;;
21337;SDS011;72379;50.880;4.350;2023-10-13T07:43:18;18.52;;;7.85;;
21337;SDS011;72379;50.880;4.350;2023-10-13T07:45:49;21.10;;;7.53;;
21337;SDS011;72379;50.880;4.350;2023-10-13T07:48:16;24.13;;;6.80;;
21337;SDS011;72379;50.880;4.350;2023-10-13T07:51:04;16.83;;;6.68;;
21337;SDS011;72379;50.880;4.350;2023-10-13T07:53:36;19.08;;;7.45;;
21337;SDS011;72379;50.880;4.350;2023-10-13T07:56:14;22.02;;;8.10;;
21337;SDS011;72379;50.880;4.350;2023-10-13T07:58:49;16.38;;;7.65;;
21337;SDS011;72379;50.880;4.350;2023-10-13T08:01:18;19.67;;;7.78;;
21337;SDS011;72379;50.880;4.350;2023-10-13T08:03:45;16.80;;;6.90;;
21337;SDS011;72379;50.880;4.350;2023-10-13T08:06:15;17.00;;;6.65;;
21337;SDS011;72379;50.880;4.350;2023-10-13T08:08:41;19.30;;;7.60;;
21337;SDS011;72379;50.880;4.350;2023-10-13T08:11:12;19.23;;;7.38;;
21337;SDS011;72379;50.880;4.350;2023-10-13T08:13:48;18.92;;;7.40;;
21337;SDS011;72379;50.880;4.350;2023-10-13T08:16:21;21.25;;;7.80;;
21337;SDS011;72379;50.880;4.350;2023-10-13T08:18:51;24.08;;;8.20;;
21337;SDS011;72379;50.880;4.350;2023-10-13T08:21:17;19.15;;;7.18;;
21337;SDS011;72379;50.880;4.350;2023-10-13T08:23:56;20.55;;;6.80;;
21337;SDS011;72379;50.880;4.350;2023-10-13T08:26:26;18.92;;;8.18;;
21337;SDS011;72379;50.880;4.350;2023-10-13T08:29:02;18.55;;;7.43;;
21337;SDS011;72379;50.880;4.350;2023-10-13T08:31:47;15.13;;;7.57;;
21337;SDS011;72379;50.880;4.350;2023-10-13T08:34:32;16.10;;;6.97;;
21337;SDS011;72379;50.880;4.350;2023-10-13T08:37:08;25.70;;;8.43;;
21337;SDS011;72379;50.880;4.350;2023-10-13T08:39:46;22.45;;;7.47;;
21337;SDS011;72379;50.880;4.350;2023-10-13T08:42:37;24.92;;;7.40;;
21337;SDS011;72379;50.880;4.350;2023-10-13T08:45:07;19.40;;;7.10;;
21337;SDS011;72379;50.880;4.350;2023-10-13T08:47:53;21.63;;;8.02;;
21337;SDS011;72379;50.880;4.350;2023-10-13T08:53:22;17.00;;;7.80;;
21337;SDS011;72379;50.880;4.350;2023-10-13T08:56:11;25.90;;;7.45;;
21337;SDS011;72379;50.880;4.350;2023-10-13T08:58:46;17.73;;;7.03;;
21337;SDS011;72379;50.880;4.350;2023-10-13T09:01:19;22.65;;;8.20;;
21337;SDS011;72379;50.880;4.350;2023-10-13T09:04:25;20.10;;;7.38;;
21337;SDS011;72379;50.880;4.350;2023-10-13T09:07:02;16.75;;;7.65;;
21337;SDS011;72379;50.880;4.350;2023-10-13T09:12:17;19.17;;;7.72;;
21337;SDS011;72379;50.880;4.350;2023-10-13T09:14:59;20.35;;;8.18;;
21337;SDS011;72379;50.880;4.350;2023-10-13T09:17:40;23.73;;;8.55;;
21337;SDS011;72379;50.880;4.350;2023-10-13T09:20:15;23.10;;;7.57;;
21337;SDS011;72379;50.880;4.350;2023-10-13T09:22:51;18.30;;;8.00;;
21337;SDS011;72379;50.880;4.350;2023-10-13T09:25:30;24.42;;;7.57;;
21337;SDS011;72379;50.880;4.350;2023-10-13T09:28:01;19.23;;;7.82;;
21337;SDS011;72379;50.880;4.350;2023-10-13T09:33:13;16.08;;;8.23;;
21337;SDS011;72379;50.880;4.350;2023-10-13T09:35:53;19.77;;;8.63;;
21337;SDS011;72379;50.880;4.350;2023-10-13T09:38:19;22.45;;;7.80;;
21337;SDS011;72379;50.880;4.350;2023-10-13T09:40:46;16.23;;;8.25;;
21337;SDS011;72379;50.880;4.350;2023-10-13T09:43:18;21.27;;;7.68;;
21337;SDS011;72379;50.880;4.350;2023-10-13T09:45:47;26.52;;;8.73;;
21337;SDS011;72379;50.880;4.350;2023-10-13T09:48:36;20.38;;;8.93;;
21337;SDS011;72379;50.880;4.350;2023-10-13T09:51:06;15.45;;;8.13;;
21337;SDS011;72379;50.880;4.350;2023-10-13T09:53:37;22.58;;;7.97;;
21337;SDS011;72379;50.880;4.350;2023-10-13T09:56:12;16.15;;;8.35;;
21337;SDS011;72379;50.880;4.350;2023-10-13T09:58:54;17.90;;;8.00;;
21337;SDS011;72379;50.880;4.350;2023-10-13T10:01:28;25.30;;;8.20;;
21337;SDS011;72379;50.880;4.350;2023-10-13T10:04:09;15.27;;;7.70;;
21337;SDS011;72379;50.880;4.350;2023-10-13T10:06:56;25.38;;;9.02;;
21337;SDS011;72379;50.880;4.350;2023-10-13T10:09:28;17.80;;;7.65;;
21337;SDS011;72379;50.880;4.350;2023-10-13T10:17:44;18.92;;;7.97;;
21337;SDS011;72379;50.880;4.350;2023-10-13T10:20:10;22.65;;;7.85;;
21337;SDS011;72379;50.880;4.350;2023-10-13T10:22:59;26.27;;;7.75;;
21337;SDS011;72379;50.880;4.350;2023-10-13T10:25:31;22.88;;;8.60;;
21337;SDS011;72379;50.880;4.350;2023-10-13T10:28:07;21.65;;;7.88;;
21337;SDS011;72379;50.880;4.350;2023-10-13T10:30:33;23.75;;;7.85;;
21337;SDS011;72379;50.880;4.350;2023-10-13T10:33:03;21.10;;;7.88;;
21337;SDS011;72379;50.880;4.350;2023-10-13T10:35:47;25.67;;;8.40;;
21337;SDS011;72379;50.880;4.350;2023-10-13T10:38:23;20.05;;;7.70;;
21337;SDS011;72379;50.880;4.350;2023-10-13T10:43:23;19.73;;;8.13;;
21337;SDS011;72379;50.880;4.350;2023-10-13T10:45:51;28.05;;;8.55;;
21337;SDS011;72379;50.880;4.350;2023-10-13T10:48:18;28.73;;;8.55;;
21337;SDS011;72379;50.880;4.350;2023-10-13T10:50:54;16.42;;;7.30;;
21337;SDS011;72379;50.880;4.350;2023-10-13T10:53:21;20.05;;;8.13;;
21337;SDS011;72379;50.880;4.350;2023-10-13T10:56:14;24.55;;;8.50;;
21337;SDS011;72379;50.880;4.350;2023-10-13T10:58:50;24.73;;;8.65;;
21337;SDS011;72379;50.880;4.350;2023-10-13T11:01:22;22.85;;;8.43;;
21337;SDS011;72379;50.880;4.350;2023-10-13T11:03:59;28.17;;;9.60;;
21337;SDS011;72379;50.880;4.350;2023-10-13T11:06:58;28.80;;;8.60;;
21337;SDS011;72379;50.880;4.350;2023-10-13T11:09:27;23.08;;;8.57;;
21337;SDS011;72379;50.880;4.350;2023-10-13T11:12:17;17.13;;;7.30;;
21337;SDS011;72379;50.880;4.350;2023-10-13T11:15:04;24.83;;;8.05;;
21337;SDS011;72379;50.880;4.350;2023-10-13T11:17:58;15.95;;;8.63;;
21337;SDS011;72379;50.880;4.350;2023-10-13T11:20:24;21.05;;;8.00;;
21337;SDS011;72379;50.880;4.350;2023-10-13T11:23:12;23.92;;;8.00;;
21337;SDS011;72379;50.880;4.350;2023-10-13T11:25:39;25.05;;;8.48;;
21337;SDS011;72379;50.880;4.350;2023-10-13T11:28:14;22.98;;;8.57;;
21337;SDS011;72379;50.880;4.350;2023-10-13T11:30:46;23.67;;;8.10;;
21337;SDS011;72379;50.880;4.350;2023-10-13T11:33:15;18.40;;;6.75;;
21337;SDS011;72379;50.880;4.350;2023-10-13T11:35:54;18.40;;;6.72;;
21337;SDS011;72379;50.880;4.350;2023-10-13T11:38:22;22.15;;;7.93;;
21337;SDS011;72379;50.880;4.350;2023-10-13T11:41:07;19.40;;;7.47;;
21337;SDS011;72379;50.880;4.350;2023-10-13T11:43:41;19.85;;;7.18;;
21337;SDS011;72379;50.880;4.350;2023-10-13T11:46:29;20.88;;;9.07;;
21337;SDS011;72379;50.880;4.350;2023-10-13T11:49:05;25.85;;;8.05;;
21337;SDS011;72379;50.880;4.350;2023-10-13T11:51:38;23.10;;;8.73;;
21337;SDS011;72379;50.880;4.350;2023-10-13T11:54:11;23.52;;;9.20;;
21337;SDS011;72379;50.880;4.350;2023-10-13T11:56:38;21.35;;;8.23;;
21337;SDS011;72379;50.880;4.350;2023-10-13T11:59:04;22.48;;;8.15;;
21337;SDS011;72379;50.880;4.350;2023-10-13T12:01:31;22.85;;;8.70;;
21337;SDS011;72379;50.880;4.350;2023-10-13T12:04:15;27.63;;;9.45;;
21337;SDS011;72379;50.880;4.350;2023-10-13T12:07:00;26.15;;;8.00;;
21337;SDS011;72379;50.880;4.350;2023-10-13T12:09:45;21.00;;;6.70;;
21337;SDS011;72379;50.880;4.350;2023-10-13T12:14:50;18.80;;;8.10;;
21337;SDS011;72379;50.880;4.350;2023-10-13T12:17:24;28.40;;;8.85;;
21337;SDS011;72379;50.880;4.350;2023-10-13T12:19:56;17.85;;;7.32;;
21337;SDS011;72379;50.880;4.350;2023-10-13T12:22:22;22.20;;;7.13;;
21337;SDS011;72379;50.880;4.350;2023-10-13T12:25:00;19.67;;;7.15;;
21337;SDS011;72379;50.880;4.350;2023-10-13T12:27:55;25.33;;;8.60;;
21337;SDS011;72379;50.880;4.350;2023-10-13T12:30:37;24.02;;;8.15;;
21337;SDS011;72379;50.880;4.350;2023-10-13T12:33:20;20.85;;;7.55;;
21337;SDS011;72379;50.880;4.350;2023-10-13T12:36:11;17.13;;;7.20;;
21337;SDS011;72379;50.880;4.350;2023-10-13T12:38:49;21.83;;;7.38;;
21337;SDS011;72379;50.880;4.350;2023-10-13T12:41:16;13.80;;;6.65;;
21337;SDS011;72379;50.880;4.350;2023-10-13T12:44:00;15.05;;;6.63;;
21337;SDS011;72379;50.880;4.350;2023-10-13T12:46:45;18.40;;;6.85;;
21337;SDS011;72379;50.880;4.350;2023-10-13T12:49:32;22.92;;;8.00;;
21337;SDS011;72379;50.880;4.350;2023-10-13T12:52:14;18.40;;;8.20;;
21337;SDS011;72379;50.880;4.350;2023-10-13T12:54:59;24.02;;;7.88;;
21337;SDS011;72379;50.880;4.350;2023-10-13T12:57:32;17.77;;;6.78;;
21337;SDS011;72379;50.880;4.350;2023-10-13T12:59:58;22.45;;;7.60;;
21337;SDS011;72379;50.880;4.350;2023-10-13T13:02:24;21.58;;;7.25;;
21337;SDS011;72379;50.880;4.350;2023-10-13T13:04:55;16.67;;;6.75;;
21337;SDS011;72379;50.880;4.350;2023-10-13T13:07:26;17.02;;;7.00;;
21337;SDS011;72379;50.880;4.350;2023-10-13T13:09:56;18.10;;;7.53;;
21337;SDS011;72379;50.880;4.350;2023-10-13T13:12:25;19.25;;;7.05;;
21337;SDS011;72379;50.880;4.350;2023-10-13T13:14:53;14.48;;;6.32;;
21337;SDS011;72379;50.880;4.350;2023-10-13T13:17:20;20.63;;;7.13;;
21337;SDS011;72379;50.880;4.350;2023-10-13T13:19:46;18.05;;;6.90;;
21337;SDS011;72379;50.880;4.350;2023-10-13T13:22:12;16.58;;;7.07;;
21337;SDS011;72379;50.880;4.350;2023-10-13T13:24:41;18.67;;;7.38;;
21337;SDS011;72379;50.880;4.350;2023-10-13T13:27:15;20.67;;;6.75;;
21337;SDS011;72379;50.880;4.350;2023-10-13T13:29:46;14.93;;;6.65;;
21337;SDS011;72379;50.880;4.350;2023-10-13T13:32:12;13.35;;;7.25;;
21337;SDS011;72379;50.880;4.350;2023-10-13T13:34:44;11.27;;;5.70;;
21337;SDS011;72379;50.880;4.350;2023-10-13T13:37:18;21.92;;;7.90;;
21337;SDS011;72379;50.880;4.350;2023-10-13T13:39:45;19.38;;;7.70;;
21337;SDS011;72379;50.880;4.350;2023-10-13T13:42:11;15.60;;;8.10;;
21337;SDS011;72379;50.880;4.350;2023-10-13T13:44:43;18.80;;;6.53;;
21337;SDS011;72379;50.880;4.350;2023-10-13T13:47:11;15.20;;;7.53;;
21337;SDS011;72379;50.880;4.350;2023-10-13T13:49:40;16.85;;;7.15;;
21337;SDS011;72379;50.880;4.350;2023-10-13T13:52:11;16.67;;;7.28;;
21337;SDS011;72379;50.880;4.350;2023-10-13T13:54:43;16.52;;;6.70;;
21337;SDS011;72379;50.880;4.350;2023-10-13T13:57:10;19.27;;;7.90;;
21337;SDS011;72379;50.880;4.350;2023-10-13T13:59:38;21.52;;;7.30;;
21337;SDS011;72379;50.880;4.350;2023-10-13T14:02:04;16.00;;;6.50;;
21337;SDS011;72379;50.880;4.350;2023-10-13T14:04:47;14.30;;;7.45;;
21337;SDS011;72379;50.880;4.350;2023-10-13T14:07:16;12.93;;;6.68;;
21337;SDS011;72379;50.880;4.350;2023-10-13T14:09:46;13.20;;;6.40;;
21337;SDS011;72379;50.880;4.350;2023-10-13T14:12:17;13.48;;;6.95;;
21337;SDS011;72379;50.880;4.350;2023-10-13T14:15:06;17.50;;;7.70;;
21337;SDS011;72379;50.880;4.350;2023-10-13T14:17:45;19.92;;;7.30;;
21337;SDS011;72379;50.880;4.350;2023-10-13T14:20:14;19.80;;;8.23;;
21337;SDS011;72379;50.880;4.350;2023-10-13T14:22:51;15.25;;;7.60;;
21337;SDS011;72379;50.880;4.350;2023-10-13T14:25:17;16.85;;;7.65;;
21337;SDS011;72379;50.880;4.350;2023-10-13T14:30:29;16.38;;;7.78;;
21337;SDS011;72379;50.880;4.350;2023-10-13T14:32:57;14.18;;;7.10;;
21337;SDS011;72379;50.880;4.350;2023-10-13T14:35:26;19.42;;;8.18;;
21337;SDS011;72379;50.880;4.350;2023-10-13T14:37:52;18.83;;;8.23;;
21337;SDS011;72379;50.880;4.350;2023-10-13T14:40:19;23.73;;;7.78;;
21337;SDS011;72379;50.880;4.350;2023-10-13T14:42:49;18.10;;;7.47;;
21337;SDS011;72379;50.880;4.350;2023-10-13T14:45:14;18.42;;;7.40;;
21337;SDS011;72379;50.880;4.350;2023-10-13T14:47:43;19.88;;;7.50;;
21337;SDS011;72379;50.880;4.350;2023-10-13T14:50:10;14.13;;;7.93;;
21337;SDS011;72379;50.880;4.350;2023-10-13T14:52:44;17.98;;;7.03;;
21337;SDS011;72379;50.880;4.350;2023-10-13T14:55:10;16.95;;;8.48;;
21337;SDS011;72379;50.880;4.350;2023-10-13T14:57:44;15.95;;;7.78;;
21337;SDS011;72379;50.880;4.350;2023-10-13T15:00:13;20.85;;;7.88;;
21337;SDS011;72379;50.880;4.350;2023-10-13T15:02:39;22.80;;;7.80;;
21337;SDS011;72379;50.880;4.350;2023-10-13T15:05:08;25.52;;;8.77;;
21337;SDS011;72379;50.880;4.350;2023-10-13T15:07:44;17.67;;;8.00;;
21337;SDS011;72379;50.880;4.350;2023-10-13T15:10:13;14.45;;;7.00;;
21337;SDS011;72379;50.880;4.350;2023-10-13T15:12:41;16.77;;;7.30;;
21337;SDS011;72379;50.880;4.350;2023-10-13T15:15:10;20.10;;;7.70;;
21337;SDS011;72379;50.880;4.350;2023-10-13T15:17:41;15.05;;;8.75;;
21337;SDS011;72379;50.880;4.350;2023-10-13T15:20:10;19.00;;;8.52;;
21337;SDS011;72379;50.880;4.350;2023-10-13T15:22:41;24.88;;;8.02;;
21337;SDS011;72379;50.880;4.350;2023-10-13T15:25:08;16.73;;;7.43;;
21337;SDS011;72379;50.880;4.350;2023-10-13T15:27:45;15.88;;;7.30;;
21337;SDS011;72379;50.880;4.350;2023-10-13T15:30:20;14.93;;;7.55;;
21337;SDS011;72379;50.880;4.350;2023-10-13T15:32:49;18.13;;;7.25;;
21337;SDS011;72379;50.880;4.350;2023-10-13T15:35:16;19.17;;;7.80;;
21337;SDS011;72379;50.880;4.350;2023-10-13T15:37:42;21.15;;;7.43;;